sensor_id;sensor_type;location;lat;lon;timestamp;P1;durP1;ratioP1;P2;durP2;ratioP2
11228;SDS011;5671;47.936;8.716;2023-04-23T00:02:00;2.63;;;1.83;;
11228;SDS011;5671;47.936;8.716;2023-04-23T00:04:28;2.47;;;1.93;;
11228;SDS011;5671;47.936;8.716;2023-04-23T00:07:00;2.67;;;2.03;;
11228;SDS011;5671;47.936;8.716;2023-04-23T00:09:30;5.40;;;2.20;;
11228;SDS011;5671;47.936;8.716;2023-04-23T00:11:57;2.93;;;2.27;;
11228;SDS011;5671;47.936;8.716;2023-04-23T00:14:25;3.30;;;2.10;;
11228;SDS011;5671;47.936;8.716;2023-04-23T00:16:52;2.90;;;2.20;;
11228;SDS011;5671;47.936;8.716;2023-04-23T00:19:20;2.40;;;2.20;;
11228;SDS011;5671;47.936;8.716;2023-04-23T00:21:46;4.33;;;2.30;;
11228;SDS011;5671;47.936;8.716;2023-04-23T00:24:14;2.33;;;1.90;;
11228;SDS011;5671;47.936;8.716;2023-04-23T00:26:42;3.03;;;2.30;;
11228;SDS011;5671;47.936;8.716;2023-04-23T00:29:09;7.73;;;2.03;;
11228;SDS011;5671;47.936;8.716;2023-04-23T00:31:36;3.27;;;2.00;;
11228;SDS011;5671;47.936;8.716;2023-04-23T00:34:03;3.80;;;1.60;;
11228;SDS011;5671;47.936;8.716;2023-04-23T00:36:30;5.30;;;1.60;;
11228;SDS011;5671;47.936;8.716;2023-04-23T00:38:57;3.67;;;1.80;;
11228;SDS011;5671;47.936;8.716;2023-04-23T00:41:24;3.70;;;1.60;;
11228;SDS011;5671;47.936;8.716;2023-04-23T00:43:53;2.13;;;1.67;;
11228;SDS011;5671;47.936;8.716;2023-04-23T00:46:21;2.70;;;1.57;;
11228;SDS011;5671;47.936;8.716;2023-04-23T00:48:48;3.87;;;1.70;;
11228;SDS011;5671;47.936;8.716;2023-04-23T00:51:17;4.13;;;1.83;;
11228;SDS011;5671;47.936;8.716;2023-04-23T00:53:44;2.80;;;1.80;;
11228;SDS011;5671;47.936;8.716;2023-04-23T00:56:13;5.63;;;1.73;;
11228;SDS011;5671;47.936;8.716;2023-04-23T00:58:40;3.10;;;2.07;;
11228;SDS011;5671;47.936;8.716;2023-04-23T01:01:08;3.77;;;2.00;;
11228;SDS011;5671;47.936;8.716;2023-04-23T01:03:36;2.17;;;1.50;;
11228;SDS011;5671;47.936;8.716;2023-04-23T01:06:06;3.23;;;1.83;;
11228;SDS011;5671;47.936;8.716;2023-04-23T01:08:33;1.67;;;1.57;;
11228;SDS011;5671;47.936;8.716;2023-04-23T01:11:01;2.27;;;2.00;;
11228;SDS011;5671;47.936;8.716;2023-04-23T01:13:28;4.07;;;1.80;;
11228;SDS011;5671;47.936;8.716;2023-04-23T01:15:55;2.83;;;1.77;;
11228;SDS011;5671;47.936;8.716;2023-04-23T01:18:23;3.77;;;1.80;;
11228;SDS011;5671;47.936;8.716;2023-04-23T01:20:50;2.53;;;2.10;;
11228;SDS011;5671;47.936;8.716;2023-04-23T01:23:19;3.13;;;1.93;;
11228;SDS011;5671;47.936;8.716;2023-04-23T01:25:45;2.07;;;1.83;;
11228;SDS011;5671;47.936;8.716;2023-04-23T01:28:12;2.97;;;2.60;;
11228;SDS011;5671;47.936;8.716;2023-04-23T01:30:41;2.53;;;2.03;;
11228;SDS011;5671;47.936;8.716;2023-04-23T01:33:09;3.73;;;2.33;;
11228;SDS011;5671;47.936;8.716;2023-04-23T01:35:36;2.70;;;2.07;;
11228;SDS011;5671;47.936;8.716;2023-04-23T01:38:04;2.60;;;2.20;;
11228;SDS011;5671;47.936;8.716;2023-04-23T01:40:35;2.90;;;2.23;;
11228;SDS011;5671;47.936;8.716;2023-04-23T01:43:02;3.47;;;2.03;;
11228;SDS011;5671;47.936;8.716;2023-04-23T01:45:29;4.60;;;2.10;;
11228;SDS011;5671;47.936;8.716;2023-04-23T01:47:57;2.80;;;2.23;;
11228;SDS011;5671;47.936;8.716;2023-04-23T01:50:24;2.20;;;2.00;;
11228;SDS011;5671;47.936;8.716;2023-04-23T01:52:53;5.17;;;2.30;;
11228;SDS011;5671;47.936;8.716;2023-04-23T01:55:20;2.83;;;1.80;;
11228;SDS011;5671;47.936;8.716;2023-04-23T01:57:49;3.00;;;1.97;;
11228;SDS011;5671;47.936;8.716;2023-04-23T02:00:16;3.67;;;1.93;;
11228;SDS011;5671;47.936;8.716;2023-04-23T02:02:44;2.97;;;1.80;;
11228;SDS011;5671;47.936;8.716;2023-04-23T02:05:12;2.27;;;1.60;;
11228;SDS011;5671;47.936;8.716;2023-04-23T02:07:41;2.40;;;1.70;;
11228;SDS011;5671;47.936;8.716;2023-04-23T02:10:09;3.17;;;1.73;;
11228;SDS011;5671;47.936;8.716;2023-04-23T02:12:36;5.40;;;2.03;;
11228;SDS011;5671;47.936;8.716;2023-04-23T02:15:05;3.17;;;1.60;;
11228;SDS011;5671;47.936;8.716;2023-04-23T02:17:33;3.67;;;1.90;;
11228;SDS011;5671;47.936;8.716;2023-04-23T02:20:01;2.40;;;2.17;;
11228;SDS011;5671;47.936;8.716;2023-04-23T02:22:28;2.30;;;1.70;;
11228;SDS011;5671;47.936;8.716;2023-04-23T02:24:55;5.33;;;2.07;;
11228;SDS011;5671;47.936;8.716;2023-04-23T02:27:22;4.33;;;1.80;;
11228;SDS011;5671;47.936;8.716;2023-04-23T02:29:49;2.80;;;1.80;;
11228;SDS011;5671;47.936;8.716;2023-04-23T02:32:18;2.07;;;1.30;;
11228;SDS011;5671;47.936;8.716;2023-04-23T02:34:45;3.87;;;1.90;;
11228;SDS011;5671;47.936;8.716;2023-04-23T02:37:12;1.67;;;1.57;;
11228;SDS011;5671;47.936;8.716;2023-04-23T02:39:39;2.10;;;1.87;;
11228;SDS011;5671;47.936;8.716;2023-04-23T02:42:06;4.10;;;2.03;;
11228;SDS011;5671;47.936;8.716;2023-04-23T02:44:32;4.23;;;1.97;;
11228;SDS011;5671;47.936;8.716;2023-04-23T02:46:59;2.57;;;1.80;;
11228;SDS011;5671;47.936;8.716;2023-04-23T02:49:27;3.73;;;2.20;;
11228;SDS011;5671;47.936;8.716;2023-04-23T02:51:54;3.47;;;2.30;;
11228;SDS011;5671;47.936;8.716;2023-04-23T02:54:21;2.70;;;1.80;;
11228;SDS011;5671;47.936;8.716;2023-04-23T02:56:48;5.10;;;2.00;;
11228;SDS011;5671;47.936;8.716;2023-04-23T02:59:15;2.80;;;2.13;;
11228;SDS011;5671;47.936;8.716;2023-04-23T03:01:42;2.83;;;2.07;;
11228;SDS011;5671;47.936;8.716;2023-04-23T03:04:09;4.67;;;1.97;;
11228;SDS011;5671;47.936;8.716;2023-04-23T03:06:37;2.70;;;1.97;;
11228;SDS011;5671;47.936;8.716;2023-04-23T03:09:04;6.03;;;2.27;;
11228;SDS011;5671;47.936;8.716;2023-04-23T03:11:31;5.37;;;2.00;;
11228;SDS011;5671;47.936;8.716;2023-04-23T03:13:59;2.87;;;2.20;;
11228;SDS011;5671;47.936;8.716;2023-04-23T03:16:26;3.70;;;2.03;;
11228;SDS011;5671;47.936;8.716;2023-04-23T03:18:53;2.83;;;2.10;;
11228;SDS011;5671;47.936;8.716;2023-04-23T03:21:20;3.23;;;1.93;;
11228;SDS011;5671;47.936;8.716;2023-04-23T03:23:48;3.23;;;2.17;;
11228;SDS011;5671;47.936;8.716;2023-04-23T03:26:15;5.13;;;2.10;;
11228;SDS011;5671;47.936;8.716;2023-04-23T03:28:42;1.90;;;1.80;;
11228;SDS011;5671;47.936;8.716;2023-04-23T03:31:09;4.47;;;1.80;;
11228;SDS011;5671;47.936;8.716;2023-04-23T03:33:36;2.77;;;1.77;;
11228;SDS011;5671;47.936;8.716;2023-04-23T03:36:03;2.30;;;1.70;;
11228;SDS011;5671;47.936;8.716;2023-04-23T03:38:30;2.90;;;1.53;;
11228;SDS011;5671;47.936;8.716;2023-04-23T03:40:58;6.30;;;1.97;;
11228;SDS011;5671;47.936;8.716;2023-04-23T03:43:25;2.73;;;1.70;;
11228;SDS011;5671;47.936;8.716;2023-04-23T03:45:52;2.20;;;1.50;;
11228;SDS011;5671;47.936;8.716;2023-04-23T03:48:19;3.67;;;1.80;;
11228;SDS011;5671;47.936;8.716;2023-04-23T03:50:46;2.10;;;1.30;;
11228;SDS011;5671;47.936;8.716;2023-04-23T03:53:13;2.03;;;1.80;;
11228;SDS011;5671;47.936;8.716;2023-04-23T03:55:41;3.03;;;1.70;;
11228;SDS011;5671;47.936;8.716;2023-04-23T03:58:10;1.93;;;1.80;;
11228;SDS011;5671;47.936;8.716;2023-04-23T04:00:38;2.47;;;1.73;;
11228;SDS011;5671;47.936;8.716;2023-04-23T04:03:05;2.33;;;2.00;;
11228;SDS011;5671;47.936;8.716;2023-04-23T04:05:33;1.73;;;1.60;;
11228;SDS011;5671;47.936;8.716;2023-04-23T04:08:00;4.07;;;1.77;;
11228;SDS011;5671;47.936;8.716;2023-04-23T04:10:29;2.33;;;1.70;;
11228;SDS011;5671;47.936;8.716;2023-04-23T04:12:55;2.50;;;1.80;;
11228;SDS011;5671;47.936;8.716;2023-04-23T04:15:24;4.37;;;2.00;;
11228;SDS011;5671;47.936;8.716;2023-04-23T04:17:51;2.53;;;1.97;;
11228;SDS011;5671;47.936;8.716;2023-04-23T04:20:18;1.60;;;1.50;;
11228;SDS011;5671;47.936;8.716;2023-04-23T04:22:44;2.47;;;1.90;;
11228;SDS011;5671;47.936;8.716;2023-04-23T04:25:11;2.07;;;1.70;;
11228;SDS011;5671;47.936;8.716;2023-04-23T04:27:38;1.80;;;1.70;;
11228;SDS011;5671;47.936;8.716;2023-04-23T04:30:06;1.90;;;1.60;;
11228;SDS011;5671;47.936;8.716;2023-04-23T04:32:35;3.57;;;2.00;;
11228;SDS011;5671;47.936;8.716;2023-04-23T04:35:03;2.53;;;1.80;;
11228;SDS011;5671;47.936;8.716;2023-04-23T04:37:30;2.30;;;1.80;;
11228;SDS011;5671;47.936;8.716;2023-04-23T04:39:57;1.70;;;1.60;;
11228;SDS011;5671;47.936;8.716;2023-04-23T04:42:25;2.50;;;1.67;;
11228;SDS011;5671;47.936;8.716;2023-04-23T04:44:52;2.47;;;1.60;;
11228;SDS011;5671;47.936;8.716;2023-04-23T04:47:19;2.07;;;1.50;;
11228;SDS011;5671;47.936;8.716;2023-04-23T04:49:47;1.30;;;1.30;;
11228;SDS011;5671;47.936;8.716;2023-04-23T04:52:13;1.57;;;1.47;;
11228;SDS011;5671;47.936;8.716;2023-04-23T04:54:40;3.80;;;2.03;;
11228;SDS011;5671;47.936;8.716;2023-04-23T04:57:07;1.60;;;1.50;;
11228;SDS011;5671;47.936;8.716;2023-04-23T04:59:35;1.47;;;1.30;;
11228;SDS011;5671;47.936;8.716;2023-04-23T05:02:01;1.43;;;1.30;;
11228;SDS011;5671;47.936;8.716;2023-04-23T05:04:28;1.37;;;1.27;;
11228;SDS011;5671;47.936;8.716;2023-04-23T05:06:56;3.30;;;1.07;;
11228;SDS011;5671;47.936;8.716;2023-04-23T05:09:23;2.10;;;1.07;;
11228;SDS011;5671;47.936;8.716;2023-04-23T05:11:51;1.43;;;1.13;;
11228;SDS011;5671;47.936;8.716;2023-04-23T05:14:17;1.03;;;0.93;;
11228;SDS011;5671;47.936;8.716;2023-04-23T05:16:44;2.00;;;0.90;;
11228;SDS011;5671;47.936;8.716;2023-04-23T05:19:11;0.97;;;0.97;;
11228;SDS011;5671;47.936;8.716;2023-04-23T05:21:38;1.90;;;1.10;;
11228;SDS011;5671;47.936;8.716;2023-04-23T05:24:06;1.63;;;1.13;;
11228;SDS011;5671;47.936;8.716;2023-04-23T05:26:33;1.00;;;1.00;;
11228;SDS011;5671;47.936;8.716;2023-04-23T05:29:00;2.03;;;1.00;;
11228;SDS011;5671;47.936;8.716;2023-04-23T05:31:28;2.90;;;0.93;;
11228;SDS011;5671;47.936;8.716;2023-04-23T05:33:55;1.23;;;0.80;;
11228;SDS011;5671;47.936;8.716;2023-04-23T05:36:22;0.70;;;0.70;;
11228;SDS011;5671;47.936;8.716;2023-04-23T05:38:48;2.90;;;0.87;;
11228;SDS011;5671;47.936;8.716;2023-04-23T05:41:16;0.80;;;0.73;;
11228;SDS011;5671;47.936;8.716;2023-04-23T05:43:43;1.87;;;1.40;;
11228;SDS011;5671;47.936;8.716;2023-04-23T05:46:10;1.20;;;1.10;;
11228;SDS011;5671;47.936;8.716;2023-04-23T05:48:37;2.27;;;1.23;;
11228;SDS011;5671;47.936;8.716;2023-04-23T05:51:04;0.77;;;0.77;;
11228;SDS011;5671;47.936;8.716;2023-04-23T05:53:30;1.23;;;1.07;;
11228;SDS011;5671;47.936;8.716;2023-04-23T05:55:57;2.00;;;1.00;;
11228;SDS011;5671;47.936;8.716;2023-04-23T05:58:26;1.90;;;0.70;;
11228;SDS011;5671;47.936;8.716;2023-04-23T06:00:52;1.00;;;0.77;;
11228;SDS011;5671;47.936;8.716;2023-04-23T06:03:21;0.63;;;0.57;;
11228;SDS011;5671;47.936;8.716;2023-04-23T06:05:48;3.20;;;0.77;;
11228;SDS011;5671;47.936;8.716;2023-04-23T06:08:15;0.60;;;0.57;;
11228;SDS011;5671;47.936;8.716;2023-04-23T06:10:42;1.17;;;0.60;;
11228;SDS011;5671;47.936;8.716;2023-04-23T06:13:09;0.70;;;0.70;;
11228;SDS011;5671;47.936;8.716;2023-04-23T06:15:37;0.67;;;0.50;;
11228;SDS011;5671;47.936;8.716;2023-04-23T06:18:04;1.53;;;0.83;;
11228;SDS011;5671;47.936;8.716;2023-04-23T06:20:31;1.33;;;0.70;;
11228;SDS011;5671;47.936;8.716;2023-04-23T06:22:58;1.10;;;0.80;;
11228;SDS011;5671;47.936;8.716;2023-04-23T06:25:26;0.50;;;0.50;;
11228;SDS011;5671;47.936;8.716;2023-04-23T06:27:53;0.20;;;0.20;;
11228;SDS011;5671;47.936;8.716;2023-04-23T06:30:21;1.07;;;0.53;;
11228;SDS011;5671;47.936;8.716;2023-04-23T06:32:50;0.63;;;0.53;;
11228;SDS011;5671;47.936;8.716;2023-04-23T06:35:17;0.80;;;0.60;;
11228;SDS011;5671;47.936;8.716;2023-04-23T06:37:44;0.47;;;0.47;;
11228;SDS011;5671;47.936;8.716;2023-04-23T06:40:11;0.30;;;0.30;;
11228;SDS011;5671;47.936;8.716;2023-04-23T06:42:38;0.50;;;0.50;;
11228;SDS011;5671;47.936;8.716;2023-04-23T06:45:05;0.63;;;0.50;;
11228;SDS011;5671;47.936;8.716;2023-04-23T06:47:32;0.63;;;0.50;;
11228;SDS011;5671;47.936;8.716;2023-04-23T06:50:00;0.50;;;0.50;;
11228;SDS011;5671;47.936;8.716;2023-04-23T06:52:27;0.70;;;0.60;;
11228;SDS011;5671;47.936;8.716;2023-04-23T06:54:54;0.77;;;0.73;;
11228;SDS011;5671;47.936;8.716;2023-04-23T06:57:21;0.90;;;0.70;;
11228;SDS011;5671;47.936;8.716;2023-04-23T06:59:48;0.97;;;0.87;;
11228;SDS011;5671;47.936;8.716;2023-04-23T07:02:15;0.80;;;0.50;;
11228;SDS011;5671;47.936;8.716;2023-04-23T07:04:41;0.50;;;0.40;;
11228;SDS011;5671;47.936;8.716;2023-04-23T07:07:10;0.50;;;0.50;;
11228;SDS011;5671;47.936;8.716;2023-04-23T07:09:37;0.43;;;0.30;;
11228;SDS011;5671;47.936;8.716;2023-04-23T07:12:03;0.37;;;0.37;;
11228;SDS011;5671;47.936;8.716;2023-04-23T07:14:31;1.13;;;0.50;;
11228;SDS011;5671;47.936;8.716;2023-04-23T07:16:57;1.10;;;0.40;;
11228;SDS011;5671;47.936;8.716;2023-04-23T07:19:24;0.40;;;0.40;;
11228;SDS011;5671;47.936;8.716;2023-04-23T07:21:51;0.33;;;0.30;;
11228;SDS011;5671;47.936;8.716;2023-04-23T07:24:19;1.47;;;1.37;;
11228;SDS011;5671;47.936;8.716;2023-04-23T07:26:46;2.80;;;1.23;;
11228;SDS011;5671;47.936;8.716;2023-04-23T07:29:13;0.90;;;0.90;;
11228;SDS011;5671;47.936;8.716;2023-04-23T07:31:40;0.80;;;0.80;;
11228;SDS011;5671;47.936;8.716;2023-04-23T07:34:07;0.93;;;0.70;;
11228;SDS011;5671;47.936;8.716;2023-04-23T07:36:34;0.50;;;0.50;;
11228;SDS011;5671;47.936;8.716;2023-04-23T07:39:01;0.67;;;0.67;;
11228;SDS011;5671;47.936;8.716;2023-04-23T07:41:30;0.43;;;0.43;;
11228;SDS011;5671;47.936;8.716;2023-04-23T07:43:57;0.50;;;0.50;;
11228;SDS011;5671;47.936;8.716;2023-04-23T07:46:24;1.03;;;0.60;;
11228;SDS011;5671;47.936;8.716;2023-04-23T07:48:51;1.20;;;0.50;;
11228;SDS011;5671;47.936;8.716;2023-04-23T07:51:19;0.63;;;0.50;;
11228;SDS011;5671;47.936;8.716;2023-04-23T07:53:50;0.40;;;0.37;;
11228;SDS011;5671;47.936;8.716;2023-04-23T07:56:18;0.87;;;0.60;;
11228;SDS011;5671;47.936;8.716;2023-04-23T07:58:46;0.57;;;0.57;;
11228;SDS011;5671;47.936;8.716;2023-04-23T08:01:13;0.47;;;0.47;;
11228;SDS011;5671;47.936;8.716;2023-04-23T08:03:40;0.80;;;0.70;;
11228;SDS011;5671;47.936;8.716;2023-04-23T08:06:07;0.60;;;0.60;;
11228;SDS011;5671;47.936;8.716;2023-04-23T08:08:36;0.67;;;0.67;;
11228;SDS011;5671;47.936;8.716;2023-04-23T08:11:05;1.07;;;0.70;;
11228;SDS011;5671;47.936;8.716;2023-04-23T08:13:32;1.57;;;0.70;;
11228;SDS011;5671;47.936;8.716;2023-04-23T08:16:00;0.87;;;0.60;;
11228;SDS011;5671;47.936;8.716;2023-04-23T08:18:27;0.80;;;0.80;;
11228;SDS011;5671;47.936;8.716;2023-04-23T08:20:54;0.77;;;0.70;;
11228;SDS011;5671;47.936;8.716;2023-04-23T08:23:21;0.43;;;0.43;;
11228;SDS011;5671;47.936;8.716;2023-04-23T08:25:48;0.67;;;0.43;;
11228;SDS011;5671;47.936;8.716;2023-04-23T08:28:15;0.80;;;0.80;;
11228;SDS011;5671;47.936;8.716;2023-04-23T08:30:42;1.60;;;1.03;;
11228;SDS011;5671;47.936;8.716;2023-04-23T08:33:11;1.03;;;0.73;;
11228;SDS011;5671;47.936;8.716;2023-04-23T08:35:38;0.60;;;0.50;;
11228;SDS011;5671;47.936;8.716;2023-04-23T08:38:05;0.87;;;0.73;;
11228;SDS011;5671;47.936;8.716;2023-04-23T08:40:32;0.63;;;0.63;;
11228;SDS011;5671;47.936;8.716;2023-04-23T08:43:01;1.40;;;0.80;;
11228;SDS011;5671;47.936;8.716;2023-04-23T08:45:32;0.70;;;0.70;;
11228;SDS011;5671;47.936;8.716;2023-04-23T08:48:05;0.67;;;0.67;;
11228;SDS011;5671;47.936;8.716;2023-04-23T08:50:34;0.73;;;0.73;;
11228;SDS011;5671;47.936;8.716;2023-04-23T08:53:03;0.87;;;0.50;;
11228;SDS011;5671;47.936;8.716;2023-04-23T08:55:33;0.43;;;0.43;;
11228;SDS011;5671;47.936;8.716;2023-04-23T08:58:00;0.87;;;0.70;;
11228;SDS011;5671;47.936;8.716;2023-04-23T09:00:30;1.43;;;0.80;;
11228;SDS011;5671;47.936;8.716;2023-04-23T09:02:57;1.57;;;1.20;;
11228;SDS011;5671;47.936;8.716;2023-04-23T09:05:24;0.97;;;0.87;;
11228;SDS011;5671;47.936;8.716;2023-04-23T09:07:54;2.80;;;0.83;;
11228;SDS011;5671;47.936;8.716;2023-04-23T09:10:22;3.63;;;1.03;;
11228;SDS011;5671;47.936;8.716;2023-04-23T09:12:49;3.70;;;1.03;;
11228;SDS011;5671;47.936;8.716;2023-04-23T09:15:16;1.80;;;1.03;;
11228;SDS011;5671;47.936;8.716;2023-04-23T09:17:44;1.17;;;1.10;;
11228;SDS011;5671;47.936;8.716;2023-04-23T09:20:12;1.00;;;1.00;;
11228;SDS011;5671;47.936;8.716;2023-04-23T09:22:40;1.70;;;0.80;;
11228;SDS011;5671;47.936;8.716;2023-04-23T09:25:09;1.40;;;0.90;;
11228;SDS011;5671;47.936;8.716;2023-04-23T09:27:37;0.63;;;0.63;;
11228;SDS011;5671;47.936;8.716;2023-04-23T09:30:06;1.37;;;1.10;;
11228;SDS011;5671;47.936;8.716;2023-04-23T09:32:35;1.83;;;0.93;;
11228;SDS011;5671;47.936;8.716;2023-04-23T09:35:04;3.13;;;1.20;;
11228;SDS011;5671;47.936;8.716;2023-04-23T09:37:32;1.03;;;0.97;;
11228;SDS011;5671;47.936;8.716;2023-04-23T09:40:00;1.23;;;1.07;;
11228;SDS011;5671;47.936;8.716;2023-04-23T09:42:30;1.20;;;1.10;;
11228;SDS011;5671;47.936;8.716;2023-04-23T09:44:59;1.87;;;1.37;;
11228;SDS011;5671;47.936;8.716;2023-04-23T09:47:30;1.10;;;1.00;;
11228;SDS011;5671;47.936;8.716;2023-04-23T09:49:58;1.00;;;1.00;;
11228;SDS011;5671;47.936;8.716;2023-04-23T09:52:25;1.10;;;1.07;;
11228;SDS011;5671;47.936;8.716;2023-04-23T09:54:54;1.10;;;0.80;;
11228;SDS011;5671;47.936;8.716;2023-04-23T09:57:22;1.43;;;1.10;;
11228;SDS011;5671;47.936;8.716;2023-04-23T09:59:51;1.03;;;1.00;;
11228;SDS011;5671;47.936;8.716;2023-04-23T10:02:18;2.50;;;1.40;;
11228;SDS011;5671;47.936;8.716;2023-04-23T10:04:49;5.80;;;1.20;;
11228;SDS011;5671;47.936;8.716;2023-04-23T10:07:17;1.17;;;1.00;;
11228;SDS011;5671;47.936;8.716;2023-04-23T10:09:45;1.60;;;1.50;;
11228;SDS011;5671;47.936;8.716;2023-04-23T10:12:12;1.43;;;1.20;;
11228;SDS011;5671;47.936;8.716;2023-04-23T10:14:39;1.63;;;1.27;;
11228;SDS011;5671;47.936;8.716;2023-04-23T10:17:09;1.57;;;1.13;;
11228;SDS011;5671;47.936;8.716;2023-04-23T10:19:37;2.23;;;1.00;;
11228;SDS011;5671;47.936;8.716;2023-04-23T10:22:07;4.87;;;1.40;;
11228;SDS011;5671;47.936;8.716;2023-04-23T10:24:37;2.13;;;1.50;;
11228;SDS011;5671;47.936;8.716;2023-04-23T10:27:08;1.60;;;1.50;;
11228;SDS011;5671;47.936;8.716;2023-04-23T10:29:38;2.13;;;1.60;;
11228;SDS011;5671;47.936;8.716;2023-04-23T10:32:05;3.07;;;1.73;;
11228;SDS011;5671;47.936;8.716;2023-04-23T10:34:33;1.70;;;1.50;;
11228;SDS011;5671;47.936;8.716;2023-04-23T10:37:00;2.50;;;1.60;;
11228;SDS011;5671;47.936;8.716;2023-04-23T10:39:29;2.47;;;1.90;;
11228;SDS011;5671;47.936;8.716;2023-04-23T10:41:58;1.80;;;1.57;;
11228;SDS011;5671;47.936;8.716;2023-04-23T10:44:30;2.10;;;1.40;;
11228;SDS011;5671;47.936;8.716;2023-04-23T10:46:58;2.93;;;1.43;;
11228;SDS011;5671;47.936;8.716;2023-04-23T10:49:28;6.23;;;1.47;;
11228;SDS011;5671;47.936;8.716;2023-04-23T10:52:01;2.20;;;1.20;;
11228;SDS011;5671;47.936;8.716;2023-04-23T10:54:33;2.57;;;1.60;;
11228;SDS011;5671;47.936;8.716;2023-04-23T10:57:01;4.03;;;1.57;;
11228;SDS011;5671;47.936;8.716;2023-04-23T10:59:30;4.17;;;1.97;;
11228;SDS011;5671;47.936;8.716;2023-04-23T11:01:58;2.57;;;1.77;;
11228;SDS011;5671;47.936;8.716;2023-04-23T11:04:31;3.30;;;1.90;;
11228;SDS011;5671;47.936;8.716;2023-04-23T11:07:05;3.57;;;1.70;;
11228;SDS011;5671;47.936;8.716;2023-04-23T11:09:35;2.27;;;1.50;;
11228;SDS011;5671;47.936;8.716;2023-04-23T11:12:05;2.03;;;1.67;;
11228;SDS011;5671;47.936;8.716;2023-04-23T11:14:34;3.07;;;2.03;;
11228;SDS011;5671;47.936;8.716;2023-04-23T11:17:02;2.50;;;1.93;;
11228;SDS011;5671;47.936;8.716;2023-04-23T11:19:33;2.40;;;1.77;;
11228;SDS011;5671;47.936;8.716;2023-04-23T11:22:02;3.17;;;2.23;;
11228;SDS011;5671;47.936;8.716;2023-04-23T11:24:32;2.23;;;1.73;;
11228;SDS011;5671;47.936;8.716;2023-04-23T11:27:04;3.87;;;1.90;;
11228;SDS011;5671;47.936;8.716;2023-04-23T11:29:32;3.10;;;1.80;;
11228;SDS011;5671;47.936;8.716;2023-04-23T11:32:01;3.50;;;2.13;;
11228;SDS011;5671;47.936;8.716;2023-04-23T11:34:29;3.83;;;1.90;;
11228;SDS011;5671;47.936;8.716;2023-04-23T11:36:57;2.87;;;1.97;;
11228;SDS011;5671;47.936;8.716;2023-04-23T11:39:27;6.77;;;2.07;;
11228;SDS011;5671;47.936;8.716;2023-04-23T11:41:54;5.37;;;2.00;;
11228;SDS011;5671;47.936;8.716;2023-04-23T11:44:23;2.17;;;1.80;;
11228;SDS011;5671;47.936;8.716;2023-04-23T11:46:50;4.33;;;1.97;;
11228;SDS011;5671;47.936;8.716;2023-04-23T11:49:18;4.63;;;1.90;;
11228;SDS011;5671;47.936;8.716;2023-04-23T11:51:46;5.90;;;1.77;;
11228;SDS011;5671;47.936;8.716;2023-04-23T11:54:13;2.50;;;1.57;;
11228;SDS011;5671;47.936;8.716;2023-04-23T11:56:53;6.37;;;1.50;;
11228;SDS011;5671;47.936;8.716;2023-04-23T11:59:20;6.53;;;1.63;;
11228;SDS011;5671;47.936;8.716;2023-04-23T12:01:48;2.93;;;1.67;;
11228;SDS011;5671;47.936;8.716;2023-04-23T12:04:17;1.87;;;1.67;;
11228;SDS011;5671;47.936;8.716;2023-04-23T12:06:46;3.43;;;1.73;;
11228;SDS011;5671;47.936;8.716;2023-04-23T12:09:15;2.57;;;1.53;;
11228;SDS011;5671;47.936;8.716;2023-04-23T12:11:43;2.87;;;1.70;;
11228;SDS011;5671;47.936;8.716;2023-04-23T12:14:13;2.33;;;1.70;;
11228;SDS011;5671;47.936;8.716;2023-04-23T12:16:40;3.53;;;1.83;;
11228;SDS011;5671;47.936;8.716;2023-04-23T12:19:09;4.03;;;2.23;;
11228;SDS011;5671;47.936;8.716;2023-04-23T12:21:48;2.37;;;1.90;;
11228;SDS011;5671;47.936;8.716;2023-04-23T12:24:19;3.80;;;1.83;;
11228;SDS011;5671;47.936;8.716;2023-04-23T12:26:48;3.03;;;1.83;;
11228;SDS011;5671;47.936;8.716;2023-04-23T12:29:20;2.00;;;1.53;;
11228;SDS011;5671;47.936;8.716;2023-04-23T12:31:47;2.70;;;1.60;;
11228;SDS011;5671;47.936;8.716;2023-04-23T12:34:16;14.37;;;2.90;;
11228;SDS011;5671;47.936;8.716;2023-04-23T12:36:45;5.80;;;1.70;;
11228;SDS011;5671;47.936;8.716;2023-04-23T12:39:29;3.50;;;1.90;;
11228;SDS011;5671;47.936;8.716;2023-04-23T12:42:02;2.50;;;1.40;;
11228;SDS011;5671;47.936;8.716;2023-04-23T12:44:36;2.03;;;1.57;;
11228;SDS011;5671;47.936;8.716;2023-04-23T12:47:04;2.23;;;1.63;;
11228;SDS011;5671;47.936;8.716;2023-04-23T12:49:33;4.07;;;1.63;;
11228;SDS011;5671;47.936;8.716;2023-04-23T12:52:01;3.00;;;1.80;;
11228;SDS011;5671;47.936;8.716;2023-04-23T12:54:30;1.90;;;1.70;;
11228;SDS011;5671;47.936;8.716;2023-04-23T12:56:58;4.30;;;1.77;;
11228;SDS011;5671;47.936;8.716;2023-04-23T12:59:26;2.10;;;1.40;;
11228;SDS011;5671;47.936;8.716;2023-04-23T13:01:54;3.80;;;1.60;;
11228;SDS011;5671;47.936;8.716;2023-04-23T13:04:21;2.83;;;1.60;;
11228;SDS011;5671;47.936;8.716;2023-04-23T13:06:48;3.77;;;1.63;;
11228;SDS011;5671;47.936;8.716;2023-04-23T13:09:16;2.57;;;1.50;;
11228;SDS011;5671;47.936;8.716;2023-04-23T13:11:54;1.90;;;1.50;;
11228;SDS011;5671;47.936;8.716;2023-04-23T13:14:21;1.50;;;1.40;;
11228;SDS011;5671;47.936;8.716;2023-04-23T13:16:48;4.07;;;1.70;;
11228;SDS011;5671;47.936;8.716;2023-04-23T13:19:18;2.27;;;1.37;;
11228;SDS011;5671;47.936;8.716;2023-04-23T13:21:45;2.93;;;1.80;;
11228;SDS011;5671;47.936;8.716;2023-04-23T13:24:12;3.17;;;1.73;;
11228;SDS011;5671;47.936;8.716;2023-04-23T13:26:39;5.63;;;1.87;;
11228;SDS011;5671;47.936;8.716;2023-04-23T13:29:08;2.83;;;1.73;;
11228;SDS011;5671;47.936;8.716;2023-04-23T13:31:36;3.20;;;1.53;;
11228;SDS011;5671;47.936;8.716;2023-04-23T13:34:03;4.18;;;1.90;;
11228;SDS011;5671;47.936;8.716;2023-04-23T13:36:32;3.67;;;1.57;;
11228;SDS011;5671;47.936;8.716;2023-04-23T13:39:00;3.80;;;1.70;;
11228;SDS011;5671;47.936;8.716;2023-04-23T13:41:38;9.17;;;2.10;;
11228;SDS011;5671;47.936;8.716;2023-04-23T13:44:05;5.43;;;2.07;;
11228;SDS011;5671;47.936;8.716;2023-04-23T13:46:31;2.13;;;1.30;;
11228;SDS011;5671;47.936;8.716;2023-04-23T13:48:58;4.07;;;1.80;;
11228;SDS011;5671;47.936;8.716;2023-04-23T13:51:26;2.47;;;1.50;;
11228;SDS011;5671;47.936;8.716;2023-04-23T13:53:54;2.53;;;1.70;;
11228;SDS011;5671;47.936;8.716;2023-04-23T13:56:22;4.57;;;1.50;;
11228;SDS011;5671;47.936;8.716;2023-04-23T13:58:49;2.77;;;1.70;;
11228;SDS011;5671;47.936;8.716;2023-04-23T14:01:17;3.80;;;1.97;;
11228;SDS011;5671;47.936;8.716;2023-04-23T14:03:44;4.63;;;2.10;;
11228;SDS011;5671;47.936;8.716;2023-04-23T14:06:12;2.77;;;1.30;;
11228;SDS011;5671;47.936;8.716;2023-04-23T14:08:39;1.80;;;1.30;;
11228;SDS011;5671;47.936;8.716;2023-04-23T14:11:07;4.03;;;1.30;;
11228;SDS011;5671;47.936;8.716;2023-04-23T14:13:34;3.27;;;1.50;;
11228;SDS011;5671;47.936;8.716;2023-04-23T14:16:02;4.13;;;1.57;;
11228;SDS011;5671;47.936;8.716;2023-04-23T14:18:29;4.27;;;1.67;;
11228;SDS011;5671;47.936;8.716;2023-04-23T14:20:56;4.37;;;1.93;;
11228;SDS011;5671;47.936;8.716;2023-04-23T14:26:10;1.90;;;1.60;;
11228;SDS011;5671;47.936;8.716;2023-04-23T14:28:50;2.67;;;1.80;;
11228;SDS011;5671;47.936;8.716;2023-04-23T14:31:17;4.47;;;1.50;;
11228;SDS011;5671;47.936;8.716;2023-04-23T14:33:44;8.37;;;1.70;;
11228;SDS011;5671;47.936;8.716;2023-04-23T14:36:11;2.47;;;1.60;;
11228;SDS011;5671;47.936;8.716;2023-04-23T14:38:38;2.43;;;1.73;;
11228;SDS011;5671;47.936;8.716;2023-04-23T14:41:05;3.83;;;1.90;;
11228;SDS011;5671;47.936;8.716;2023-04-23T14:43:33;2.90;;;1.60;;
11228;SDS011;5671;47.936;8.716;2023-04-23T14:46:01;5.03;;;1.43;;
11228;SDS011;5671;47.936;8.716;2023-04-23T14:48:28;2.73;;;1.77;;
11228;SDS011;5671;47.936;8.716;2023-04-23T14:50:56;2.63;;;1.50;;
11228;SDS011;5671;47.936;8.716;2023-04-23T14:53:23;3.53;;;1.53;;
11228;SDS011;5671;47.936;8.716;2023-04-23T14:55:49;2.60;;;1.33;;
11228;SDS011;5671;47.936;8.716;2023-04-23T14:58:16;4.40;;;1.73;;
11228;SDS011;5671;47.936;8.716;2023-04-23T15:00:44;4.00;;;1.77;;
11228;SDS011;5671;47.936;8.716;2023-04-23T15:03:12;1.80;;;1.40;;
11228;SDS011;5671;47.936;8.716;2023-04-23T15:05:39;3.10;;;1.50;;
11228;SDS011;5671;47.936;8.716;2023-04-23T15:08:06;2.63;;;1.07;;